Time;durP1;ratioP1;P1;durP2;ratioP2;P2;SDS_P1;SDS_P2;PMS_P1;PMS_P2;Temp;Humidity;BMP_temperature;BMP_pressure;BME280_temperature;BME280_humidity;BME280_pressure;Samples;Min_cycle;Max_cycle;Signal;HPM_P1;HPM_P2
2021/09/23 00:00:56;;;;;;;41.15;27.90;;;;;;;9.23;82.25;97758.36;1767763;81;27395;-87
2021/09/23 00:05:58;;;;;;;45.90;28.47;;;;;;;9.19;82.22;97750.34;1740668;79;26280;-87
2021/09/23 00:08:24;;;;;;;40.35;27.95;;;;;;;9.19;82.32;97751.17;1757156;81;26890;-87
2021/09/23 00:10:51;;;;;;;47.45;28.90;;;;;;;9.22;82.33;97749.96;1764659;79;25822;-86
2021/09/23 00:13:18;;;;;;;47.53;28.65;;;;;;;9.24;82.34;97750.61;1762732;80;27515;-86
2021/09/23 00:15:45;;;;;;;46.10;28.38;;;;;;;9.19;82.30;97744.44;1768279;81;25823;-87
2021/09/23 00:18:17;;;;;;;46.30;28.73;;;;;;;9.19;82.35;97740.91;1768379;81;25806;-86
2021/09/23 00:20:47;;;;;;;42.00;26.57;;;;;;;9.23;82.42;97739.52;1757491;81;26074;-87
2021/09/23 00:23:16;;;;;;;43.25;27.05;;;;;;;9.24;82.37;97734.45;1766373;80;25809;-86
2021/09/23 00:25:42;;;;;;;46.02;27.30;;;;;;;9.21;82.37;97734.83;1737442;80;27423;-87
2021/09/23 00:28:11;;;;;;;44.85;28.38;;;;;;;9.22;82.41;97741.38;1737505;81;25824;-85
2021/09/23 00:30:39;;;;;;;44.30;27.45;;;;;;;9.20;82.42;97740.73;1759323;80;25755;-86
2021/09/23 00:33:05;;;;;;;40.92;27.07;;;;;;;9.20;82.42;97739.89;1739616;81;26456;-85
2021/09/23 00:35:32;;;;;;;40.23;28.05;;;;;;;9.20;82.48;97739.89;1740788;80;25906;-86
2021/09/23 00:37:59;;;;;;;46.13;28.15;;;;;;;9.17;82.49;97733.06;1739170;81;26966;-86
2021/09/23 00:40:25;;;;;;;42.62;27.93;;;;;;;9.18;82.57;97727.96;1738929;81;25788;-86
2021/09/23 00:42:52;;;;;;;50.78;28.60;;;;;;;9.20;82.55;97723.73;1703121;81;26318;-86
2021/09/23 00:45:21;;;;;;;45.65;28.50;;;;;;;9.22;82.52;97727.06;1727858;81;26028;-87
2021/09/23 00:47:49;;;;;;;49.25;29.00;;;;;;;9.23;82.55;97724.19;1747533;81;25263;-87
2021/09/23 00:50:18;;;;;;;54.65;31.52;;;;;;;9.24;82.52;97728.55;1770145;80;27400;-87
2021/09/23 00:52:44;;;;;;;52.08;30.85;;;;;;;9.25;82.51;97725.34;1737484;81;25809;-87
2021/09/23 00:55:12;;;;;;;47.90;30.43;;;;;;;9.27;82.54;97719.25;1767562;80;25791;-87
2021/09/23 00:57:39;;;;;;;48.42;30.50;;;;;;;9.25;82.52;97709.17;1741605;80;26018;-86
2021/09/23 01:00:13;;;;;;;45.92;29.70;;;;;;;9.25;82.54;97712.70;1737346;81;25778;-86
2021/09/23 01:02:39;;;;;;;45.98;28.98;;;;;;;9.26;82.58;97704.11;1737354;80;27990;-87
2021/09/23 01:05:08;;;;;;;50.33;30.60;;;;;;;9.28;82.56;97705.59;1737437;80;25847;-87
2021/09/23 01:07:35;;;;;;;48.85;30.52;;;;;;;9.30;82.53;97708.05;1737145;81;25734;-87
2021/09/23 01:10:03;;;;;;;46.88;29.98;;;;;;;9.30;82.53;97706.71;1737841;81;26054;-87
2021/09/23 01:12:30;;;;;;;44.15;29.37;;;;;;;9.29;82.49;97705.91;1746024;80;25747;-88
2021/09/23 01:14:56;;;;;;;41.80;27.60;;;;;;;9.31;82.50;97715.11;1781312;79;27361;-86
2021/09/23 01:17:23;;;;;;;46.77;29.32;;;;;;;9.27;82.47;97702.58;1776021;79;25822;-87
2021/09/23 01:19:50;;;;;;;44.42;27.62;;;;;;;9.26;82.45;97702.77;1713561;82;25800;-88
2021/09/23 01:22:17;;;;;;;44.25;26.50;;;;;;;9.25;82.43;97696.55;1771238;80;26048;-89
2021/09/23 01:24:44;;;;;;;38.60;27.62;;;;;;;9.21;82.43;97697.12;1763352;81;25737;-87
2021/09/23 01:27:12;;;;;;;38.35;27.13;;;;;;;9.22;82.52;97698.78;1754931;80;27366;-88
2021/09/23 01:29:41;;;;;;;39.15;26.00;;;;;;;9.22;82.57;97690.70;1758800;79;25843;-86
2021/09/23 01:32:09;;;;;;;39.08;26.93;;;;;;;9.19;82.52;97686.53;1757364;81;25747;-86
2021/09/23 01:34:39;;;;;;;43.42;27.48;;;;;;;9.19;82.58;97685.70;1761311;81;25980;-86
2021/09/23 01:37:06;;;;;;;39.90;26.27;;;;;;;9.20;82.53;97680.64;1734892;82;25693;-86
2021/09/23 01:39:32;;;;;;;39.13;25.52;;;;;;;9.17;82.52;97674.31;1736073;82;27332;-86
2021/09/23 01:41:59;;;;;;;36.05;26.15;;;;;;;9.14;82.51;97678.74;1771061;80;25823;-86
2021/09/23 01:44:26;;;;;;;37.40;24.80;;;;;;;9.16;82.54;97675.34;1760835;81;25455;-86
2021/09/23 01:46:53;;;;;;;37.30;24.82;;;;;;;9.14;82.50;97675.53;1735135;82;26054;-86
2021/09/23 01:49:20;;;;;;;36.03;25.35;;;;;;;9.14;82.49;97680.09;1736147;82;26650;-86
2021/09/23 01:51:46;;;;;;;38.38;25.40;;;;;;;9.13;82.47;97681.95;1771194;80;27362;-87
2021/09/23 01:54:14;;;;;;;38.92;25.02;;;;;;;9.13;82.46;97683.80;1746379;81;25276;-87
2021/09/23 01:56:41;;;;;;;35.92;23.95;;;;;;;9.11;82.49;97672.39;1770590;80;25797;-86
2021/09/23 01:59:07;;;;;;;40.85;25.90;;;;;;;9.10;82.47;97677.45;1769769;81;26026;-86
2021/09/23 02:01:34;;;;;;;36.13;23.30;;;;;;;9.10;82.54;97670.72;1740553;82;25803;-86
2021/09/23 02:04:01;;;;;;;33.85;23.12;;;;;;;9.09;82.50;97677.13;1764805;81;27479;-87
2021/09/23 02:06:27;;;;;;;34.63;23.15;;;;;;;9.08;82.49;97683.55;1744428;81;25842;-86
2021/09/23 02:08:54;;;;;;;33.42;23.05;;;;;;;9.03;82.44;97678.77;1764633;80;25628;-86
2021/09/23 02:11:21;;;;;;;32.70;23.45;;;;;;;9.00;82.48;97679.98;1764554;80;26749;-86
2021/09/23 02:13:48;;;;;;;34.25;23.27;;;;;;;9.01;82.49;97675.43;1765488;81;25588;-86
2021/09/23 02:16:14;;;;;;;41.85;23.70;;;;;;;9.02;82.50;97680.62;1766697;81;27412;-86
2021/09/23 02:18:41;;;;;;;32.85;22.22;;;;;;;9.02;82.53;97677.93;1765852;80;26505;-86
2021/09/23 02:21:08;;;;;;;31.90;22.10;;;;;;;9.02;82.54;97675.23;1764708;81;25278;-87
2021/09/23 02:23:35;;;;;;;30.10;22.42;;;;;;;9.02;82.54;97665.81;1764631;80;26046;-86
2021/09/23 02:26:01;;;;;;;36.63;23.32;;;;;;;9.02;82.48;97664.98;1764704;81;25788;-86
2021/09/23 02:28:29;;;;;;;33.48;22.55;;;;;;;9.00;82.40;97652.22;1764689;81;27349;-85
2021/09/23 02:30:56;;;;;;;31.55;22.05;;;;;;;8.97;82.35;97648.05;1764583;81;25771;-86
2021/09/23 02:33:22;;;;;;;40.52;22.13;;;;;;;8.95;82.34;97643.37;1764772;81;25743;-86
2021/09/23 02:35:49;;;;;;;34.90;22.85;;;;;;;8.90;82.28;97640.45;1766009;81;26449;-87
2021/09/23 02:38:16;;;;;;;37.33;23.70;;;;;;;8.88;82.33;97637.12;1763571;80;25801;-87
2021/09/23 02:40:42;;;;;;;37.63;23.83;;;;;;;8.86;82.27;97637.81;1759638;81;27370;-86
2021/09/23 02:43:09;;;;;;;34.45;23.40;;;;;;;8.85;82.22;97641.53;1754626;80;25815;-87
2021/09/23 02:45:35;;;;;;;29.95;22.25;;;;;;;8.83;82.19;97640.89;1746321;81;25735;-88
2021/09/23 02:48:03;;;;;;;33.55;22.80;;;;;;;8.80;82.23;97630.53;1728841;82;25952;-87
2021/09/23 02:50:29;;;;;;;29.82;21.27;;;;;;;8.78;82.13;97639.83;1740516;82;25667;-87
2021/09/23 02:52:56;;;;;;;30.25;22.55;;;;;;;8.74;82.09;97637.19;1740533;82;27424;-87
2021/09/23 02:55:23;;;;;;;37.28;23.92;;;;;;;8.72;82.13;97634.69;1740451;82;25904;-86
2021/09/23 02:57:52;;;;;;;36.05;23.22;;;;;;;8.70;82.10;97621.10;1768963;80;25827;-86
2021/09/23 03:00:19;;;;;;;31.45;21.37;;;;;;;8.65;82.08;97621.70;1746249;80;26056;-86
2021/09/23 03:02:46;;;;;;;36.58;20.05;;;;;;;8.61;82.04;97620.42;1763784;81;26365;-87
2021/09/23 03:05:12;;;;;;;31.57;20.68;;;;;;;8.51;82.00;97611.33;1768303;80;27353;-87
2021/09/23 03:07:39;;;;;;;29.63;21.70;;;;;;;8.51;82.06;97613.19;1764129;79;25735;-86
2021/09/23 03:10:07;;;;;;;31.05;21.10;;;;;;;8.50;82.08;97624.98;1740211;82;25374;-86
2021/09/23 03:12:33;;;;;;;29.27;20.55;;;;;;;8.49;82.07;97627.34;1739541;81;25980;-85
2021/09/23 03:15:00;;;;;;;27.90;19.85;;;;;;;8.47;82.09;97627.53;1768314;81;25771;-86
2021/09/23 03:17:26;;;;;;;30.40;19.50;;;;;;;8.47;82.13;97615.42;1744351;80;27452;-86
2021/09/23 03:19:53;;;;;;;29.63;21.50;;;;;;;8.48;82.13;97620.30;1753689;81;25784;-86
2021/09/23 03:22:21;;;;;;;29.80;20.50;;;;;;;8.42;82.03;97618.39;1748043;80;25768;-86
2021/09/23 03:24:48;;;;;;;30.23;20.48;;;;;;;8.34;81.96;97617.16;1763853;81;26711;-86
2021/09/23 03:27:15;;;;;;;29.40;20.82;;;;;;;8.32;82.07;97615.19;1762285;81;25727;-87
2021/09/23 03:29:44;;;;;;;39.88;23.22;;;;;;;8.23;82.01;97611.23;1754337;81;28078;-86
2021/09/23 03:32:10;;;;;;;33.85;22.50;;;;;;;8.23;82.21;97613.92;1761083;81;25734;-87
2021/09/23 03:34:37;;;;;;;30.40;20.85;;;;;;;8.26;82.32;97607.34;1755490;81;25788;-87
2021/09/23 03:37:03;;;;;;;35.63;20.85;;;;;;;8.25;82.22;97607.02;1759978;81;25955;-87
2021/09/23 03:39:30;;;;;;;28.75;20.00;;;;;;;8.21;82.10;97607.89;1767510;80;25760;-87
2021/09/23 03:41:57;;;;;;;31.93;20.60;;;;;;;8.15;82.02;97604.64;1753177;81;27308;-87
2021/09/23 03:44:23;;;;;;;28.90;20.05;;;;;;;8.13;82.06;97610.72;1763077;80;25781;-87
2021/09/23 03:46:50;;;;;;;31.95;19.92;;;;;;;8.09;81.94;97613.45;1768162;80;25790;-87
2021/09/23 03:49:16;;;;;;;31.52;20.15;;;;;;;8.06;81.93;97621.09;1768239;81;25961;-86
2021/09/23 03:51:43;;;;;;;33.73;20.72;;;;;;;8.05;81.96;97626.14;1768269;81;26404;-86
2021/09/23 03:54:10;;;;;;;30.23;21.10;;;;;;;8.00;81.93;97627.22;1761786;80;27436;-86
2021/09/23 03:56:36;;;;;;;30.82;21.52;;;;;;;7.98;82.00;97630.09;1763999;80;25903;-86
2021/09/23 03:59:03;;;;;;;33.95;22.40;;;;;;;7.96;82.06;97634.84;1756106;81;26015;-86
2021/09/23 04:01:30;;;;;;;33.15;21.82;;;;;;;7.97;82.13;97629.77;1740759;82;26772;-87
2021/09/23 04:03:56;;;;;;;28.25;21.00;;;;;;;7.92;82.14;97628.17;1740624;81;25746;-86
2021/09/23 04:06:23;;;;;;;33.10;22.87;;;;;;;7.89;82.23;97632.58;1740672;82;27377;-87
2021/09/23 04:08:49;;;;;;;29.77;20.77;;;;;;;7.91;82.38;97635.91;1740565;82;25251;-87
2021/09/23 04:11:17;;;;;;;31.35;22.50;;;;;;;7.89;82.39;97632.58;1740616;82;25753;-86
2021/09/23 04:13:44;;;;;;;33.85;22.40;;;;;;;7.89;82.47;97633.92;1740591;82;26141;-86
2021/09/23 04:16:10;;;;;;;34.27;22.32;;;;;;;7.93;82.56;97643.28;1749885;80;25736;-87
2021/09/23 04:18:37;;;;;;;35.38;24.00;;;;;;;7.95;82.61;97635.87;1747782;81;27853;-86
2021/09/23 04:21:04;;;;;;;34.63;24.12;;;;;;;7.93;82.53;97625.81;1747701;80;25810;-87
2021/09/23 04:23:31;;;;;;;35.05;22.60;;;;;;;7.94;82.61;97630.16;1749734;81;25762;-87
2021/09/23 04:25:58;;;;;;;31.73;22.17;;;;;;;7.96;82.62;97632.16;1740605;81;26588;-87
2021/09/23 04:28:24;;;;;;;31.73;22.27;;;;;;;7.96;82.65;97629.47;1740709;80;25276;-87
2021/09/23 04:30:51;;;;;;;31.95;22.25;;;;;;;7.96;82.67;97625.44;1740670;80;27369;-87
2021/09/23 04:33:17;;;;;;;33.25;21.60;;;;;;;7.98;82.64;97622.53;1740454;81;25874;-87
2021/09/23 04:35:45;;;;;;;35.95;22.35;;;;;;;7.93;82.55;97613.20;1740681;81;25747;-87
2021/09/23 04:38:17;;;;;;;30.32;21.37;;;;;;;7.93;82.57;97613.71;1740649;80;26037;-88
2021/09/23 04:40:40;;;;;;;32.00;21.12;;;;;;;7.90;82.58;97610.05;1740716;82;25740;-86
2021/09/23 04:43:06;;;;;;;31.65;22.15;;;;;;;7.89;82.65;97609.73;1740805;82;27358;-87
2021/09/23 04:45:33;;;;;;;42.83;23.38;;;;;;;7.91;82.73;97613.06;1740635;81;25690;-87
2021/09/23 04:48:01;;;;;;;42.50;28.02;;;;;;;7.95;82.79;97614.36;1740673;82;25760;-86
2021/09/23 04:50:28;;;;;;;38.13;23.77;;;;;;;7.98;82.80;97605.89;1740586;82;26656;-86
2021/09/23 04:52:55;;;;;;;40.25;25.15;;;;;;;7.99;82.79;97610.25;1740673;82;25758;-87
2021/09/23 04:55:21;;;;;;;37.20;24.27;;;;;;;8.00;82.82;97618.64;1745729;80;27276;-87
2021/09/23 04:57:48;;;;;;;38.10;24.02;;;;;;;8.03;82.88;97622.30;1763962;80;25796;-86
2021/09/23 05:00:16;;;;;;;39.65;25.62;;;;;;;8.06;82.88;97619.23;1771225;80;25792;-87
2021/09/23 05:02:42;;;;;;;39.08;24.67;;;;;;;8.10;82.94;97616.47;1763507;80;25973;-87
2021/09/23 05:05:09;;;;;;;40.70;25.23;;;;;;;8.10;82.96;97621.84;1767076;79;25684;-87
2021/09/23 05:07:36;;;;;;;38.53;25.45;;;;;;;8.13;82.96;97630.88;1771274;80;27366;-87
2021/09/23 05:10:03;;;;;;;48.42;28.87;;;;;;;8.16;82.98;97620.27;1771553;79;25754;-87
2021/09/23 05:12:30;;;;;;;53.13;29.82;;;;;;;8.20;83.05;97623.73;1763344;79;25742;-87
2021/09/23 05:14:56;;;;;;;52.30;30.05;;;;;;;8.24;83.10;97616.94;1740678;79;26192;-87
2021/09/23 05:17:23;;;;;;;44.38;26.23;;;;;;;8.25;83.05;97613.22;1762316;80;25293;-87
2021/09/23 05:19:50;;;;;;;36.53;23.07;;;;;;;8.28;83.01;97615.54;1771175;80;27522;-87
2021/09/23 05:22:17;;;;;;;35.17;23.12;;;;;;;8.30;83.05;97618.04;1771226;80;25810;-87
2021/09/23 05:24:47;;;;;;;31.85;21.68;;;;;;;8.33;83.08;97615.52;1771322;80;25270;-87
2021/09/23 05:27:12;;;;;;;35.35;21.25;;;;;;;8.36;83.07;97611.08;1771026;80;26012;-88
2021/09/23 05:29:41;;;;;;;30.45;22.45;;;;;;;8.37;83.10;97609.54;1771196;80;25696;-87
2021/09/23 05:32:08;;;;;;;34.55;23.05;;;;;;;8.39;83.12;97606.66;1771238;80;27502;-88
2021/09/23 05:34:35;;;;;;;27.82;20.15;;;;;;;8.40;83.16;97598.41;1771130;80;25774;-88
2021/09/23 05:37:02;;;;;;;29.02;19.80;;;;;;;8.46;83.07;97598.13;1771239;80;25791;-87
2021/09/23 05:39:28;;;;;;;32.48;21.85;;;;;;;8.52;82.99;97600.06;1771215;80;26074;-87
2021/09/23 05:41:55;;;;;;;25.23;19.07;;;;;;;8.56;82.91;97598.66;1771334;80;26534;-88
2021/09/23 05:44:24;;;;;;;28.73;20.08;;;;;;;8.58;82.80;97603.31;1771335;80;27368;-88
2021/09/23 05:46:52;;;;;;;29.12;19.60;;;;;;;8.59;82.74;97606.32;1764321;80;25947;-89
2021/09/23 05:49:20;;;;;;;30.02;19.20;;;;;;;8.60;82.71;97614.71;1740846;80;25773;-88
2021/09/23 05:51:48;;;;;;;30.60;20.62;;;;;;;8.63;82.68;97618.37;1771236;80;27029;-89
2021/09/23 05:54:15;;;;;;;35.70;22.75;;;;;;;8.66;82.82;97613.44;1771285;80;25784;-88
2021/09/23 05:56:42;;;;;;;37.48;24.37;;;;;;;8.70;82.84;97609.83;1771129;80;28360;-88
2021/09/23 05:59:08;;;;;;;39.05;23.73;;;;;;;8.75;82.87;97606.05;1768352;80;25807;-88
2021/09/23 06:01:35;;;;;;;34.45;23.67;;;;;;;8.81;82.80;97606.63;1767917;81;26011;-89
2021/09/23 06:04:02;;;;;;;41.55;26.45;;;;;;;8.87;82.71;97593.72;1768264;80;25964;-88
2021/09/23 06:06:28;;;;;;;41.90;26.33;;;;;;;8.92;82.72;97584.55;1768301;81;25662;-88
2021/09/23 06:08:55;;;;;;;43.75;27.20;;;;;;;8.99;82.72;97587.28;1768274;80;27425;-89
2021/09/23 06:11:22;;;;;;;38.13;24.95;;;;;;;9.09;82.80;97590.96;1768066;81;25728;-88
2021/09/23 06:13:48;;;;;;;31.42;21.70;;;;;;;9.18;82.82;97587.08;1768167;80;25818;-88
2021/09/23 06:16:15;;;;;;;28.85;19.10;;;;;;;9.25;82.55;97583.41;1768277;81;26073;-88
2021/09/23 06:18:42;;;;;;;28.95;17.57;;;;;;;9.31;82.46;97577.73;1768257;81;25751;-89
2021/09/23 06:21:08;;;;;;;27.20;18.37;;;;;;;9.38;82.23;97585.34;1768197;80;28263;-88
2021/09/23 06:23:36;;;;;;;26.52;17.48;;;;;;;9.42;82.16;97578.51;1768216;81;25867;-88
2021/09/23 06:26:03;;;;;;;23.83;17.67;;;;;;;9.49;82.00;97576.70;1761654;81;25716;-89
2021/09/23 06:28:30;;;;;;;24.10;17.32;;;;;;;9.54;81.89;97566.12;1753620;81;26067;-88
2021/09/23 06:30:59;;;;;;;22.93;17.15;;;;;;;9.61;81.84;97568.87;1768308;81;26461;-87
2021/09/23 06:33:26;;;;;;;23.50;16.97;;;;;;;9.65;81.80;97564.23;1768347;81;27626;-88
2021/09/23 06:35:52;;;;;;;24.23;16.87;;;;;;;9.72;81.77;97566.42;1768169;80;26250;-89
2021/09/23 06:38:19;;;;;;;26.85;17.90;;;;;;;9.79;81.91;97569.13;1768349;81;25755;-88
2021/09/23 06:40:46;;;;;;;25.25;18.25;;;;;;;9.85;82.07;97571.03;1768324;81;26146;-89
2021/09/23 06:43:13;;;;;;;24.75;17.65;;;;;;;9.89;82.05;97567.42;1768448;80;25763;-88
2021/09/23 06:45:39;;;;;;;26.87;17.25;;;;;;;9.93;81.96;97563.27;1758733;80;26788;-89
2021/09/23 06:48:06;;;;;;;20.82;15.58;;;;;;;10.01;81.66;97571.19;1738068;80;25757;-87
2021/09/23 06:50:33;;;;;;;19.92;14.30;;;;;;;10.04;81.27;97557.27;1771374;80;25763;-87
2021/09/23 06:53:00;;;;;;;16.90;13.55;;;;;;;10.05;80.95;97560.28;1747772;80;26796;-89
2021/09/23 06:55:27;;;;;;;18.50;14.20;;;;;;;10.09;80.63;97572.34;1746108;80;26312;-87
2021/09/23 06:57:54;;;;;;;18.40;13.25;;;;;;;10.10;80.27;97574.83;1754845;81;27424;-88
2021/09/23 07:00:20;;;;;;;18.27;12.55;;;;;;;10.11;80.30;97575.66;1741588;80;25930;-88
2021/09/23 07:02:47;;;;;;;19.67;13.60;;;;;;;10.10;79.94;97571.30;1763816;81;25747;-87
2021/09/23 07:05:13;;;;;;;18.92;13.85;;;;;;;10.11;79.75;97570.27;1738271;82;26820;-88
2021/09/23 07:07:40;;;;;;;19.12;12.78;;;;;;;10.09;79.66;97561.03;1771449;80;25811;-88
2021/09/23 07:10:08;;;;;;;17.15;13.25;;;;;;;10.13;79.75;97558.77;1768290;81;27377;-87
2021/09/23 07:12:34;;;;;;;18.25;13.48;;;;;;;10.20;79.66;97559.63;1771521;79;25688;-87
2021/09/23 07:15:01;;;;;;;16.55;13.00;;;;;;;10.28;79.62;97558.07;1771529;79;25695;-87
2021/09/23 07:17:28;;;;;;;19.80;14.10;;;;;;;10.34;79.53;97551.87;1739887;81;26135;-88
2021/09/23 07:19:54;;;;;;;16.52;12.90;;;;;;;10.39;79.31;97546.66;1768341;81;25725;-88
2021/09/23 07:22:21;;;;;;;19.45;13.83;;;;;;;10.45;79.16;97554.47;1771918;79;27333;-90
2021/09/23 07:24:47;;;;;;;19.65;13.65;;;;;;;10.50;79.01;97555.20;1771854;79;25670;-88
2021/09/23 07:27:14;;;;;;;20.08;14.07;;;;;;;10.57;78.90;97554.67;1738284;81;25852;-88
2021/09/23 07:29:40;;;;;;;20.50;12.78;;;;;;;10.65;78.86;97550.41;1768299;81;26151;-87
2021/09/23 07:32:09;;;;;;;16.35;13.10;;;;;;;10.73;78.84;97550.22;1771293;79;25298;-88
2021/09/23 07:34:38;;;;;;;15.60;12.60;;;;;;;10.82;78.74;97552.48;1756892;81;27458;-86
2021/09/23 07:37:04;;;;;;;18.45;13.20;;;;;;;10.89;78.46;97543.53;1758926;81;25700;-88
2021/09/23 07:39:32;;;;;;;17.48;12.73;;;;;;;10.96;78.35;97543.85;1749992;79;25918;-88
2021/09/23 07:41:59;;;;;;;15.85;12.45;;;;;;;11.01;78.12;97541.85;1752741;79;26157;-87
2021/09/23 07:44:25;;;;;;;15.85;12.68;;;;;;;11.06;78.06;97551.00;1727619;82;25858;-87
2021/09/23 07:46:54;;;;;;;17.50;13.28;;;;;;;11.12;77.95;97549.31;1769308;80;28162;-86
2021/09/23 07:49:21;;;;;;;16.42;12.82;;;;;;;11.18;78.00;97547.96;1771267;80;25838;-87
2021/09/23 07:51:48;;;;;;;17.07;12.73;;;;;;;11.27;77.74;97536.91;1749406;80;25728;-86
2021/09/23 07:54:15;;;;;;;16.40;11.93;;;;;;;11.34;77.64;97529.11;1756820;80;26347;-87
2021/09/23 07:56:41;;;;;;;16.12;11.33;;;;;;;11.41;77.53;97522.31;1765526;80;25909;-87
2021/09/23 07:59:08;;;;;;;15.80;11.50;;;;;;;11.56;77.45;97520.19;1766696;80;27348;-87
2021/09/23 08:01:34;;;;;;;13.60;11.55;;;;;;;11.64;77.31;97511.81;1762248;81;25796;-88
2021/09/23 08:04:01;;;;;;;17.70;11.97;;;;;;;11.71;77.09;97508.55;1762433;80;25826;-88
2021/09/23 08:06:27;;;;;;;18.40;12.75;;;;;;;11.77;76.69;97514.48;1705259;83;27016;-88
2021/09/23 08:08:56;;;;;;;16.70;12.45;;;;;;;11.85;76.68;97516.93;1753757;81;25699;-88
2021/09/23 08:11:23;;;;;;;16.95;10.88;;;;;;;11.99;76.53;97508.74;1753855;80;28271;-90
2021/09/23 08:13:50;;;;;;;15.70;10.60;;;;;;;12.09;76.49;97510.44;1753497;81;25853;-88
2021/09/23 08:16:17;;;;;;;13.40;9.58;;;;;;;12.18;75.86;97512.69;1753630;81;25624;-90
2021/09/23 08:18:43;;;;;;;16.02;10.85;;;;;;;12.45;76.04;97508.41;1753673;81;25973;-88
2021/09/23 08:21:10;;;;;;;11.15;8.78;;;;;;;12.75;75.99;97503.16;1753666;81;25795;-93
2021/09/23 08:23:37;;;;;;;13.78;9.00;;;;;;;13.09;75.73;97499.89;1753809;81;27516;-87
2021/09/23 08:26:04;;;;;;;15.75;8.63;;;;;;;13.48;75.36;97485.62;1753719;81;26055;-91
2021/09/23 08:28:32;;;;;;;11.28;8.70;;;;;;;13.83;74.87;97479.82;1753739;81;25729;-91
2021/09/23 08:30:59;;;;;;;11.63;7.97;;;;;;;14.10;74.53;97478.09;1753693;81;26815;-90
2021/09/23 08:33:26;;;;;;;11.75;8.15;;;;;;;14.37;74.20;97485.56;1753727;81;25705;-89
2021/09/23 08:35:52;;;;;;;11.85;7.40;;;;;;;14.67;73.72;97476.02;1753740;81;28347;-85
2021/09/23 08:38:20;;;;;;;8.33;6.55;;;;;;;14.99;73.53;97472.41;1747665;81;26431;-89
2021/09/23 08:40:48;;;;;;;8.68;7.25;;;;;;;15.17;72.62;97476.89;1740624;82;25332;-89
2021/09/23 08:43:16;;;;;;;10.53;7.58;;;;;;;15.23;72.23;97470.48;1753689;81;26784;-86
2021/09/23 08:45:43;;;;;;;17.35;8.50;;;;;;;15.15;71.64;97468.14;1747908;81;26300;-90
2021/09/23 08:48:11;;;;;;;10.38;5.85;;;;;;;15.09;71.54;97467.19;1740624;80;27360;-87
2021/09/23 08:50:39;;;;;;;9.43;5.50;;;;;;;15.06;71.31;97471.77;1739934;80;26012;-87
2021/09/23 08:53:06;;;;;;;8.15;6.30;;;;;;;15.05;70.72;97472.00;1739080;80;25883;-87
2021/09/23 08:55:34;;;;;;;11.63;6.55;;;;;;;15.03;70.73;97464.61;1739014;80;26072;-91
2021/09/23 08:58:04;;;;;;;11.68;7.03;;;;;;;14.99;70.78;97463.42;1739013;81;25677;-91
2021/09/23 09:00:34;;;;;;;11.30;6.30;;;;;;;14.89;70.40;97465.91;1734294;82;27543;-88
2021/09/23 09:03:08;;;;;;;11.45;6.28;;;;;;;14.93;70.46;97457.59;1767875;81;26099;-92
2021/09/23 09:05:39;;;;;;;7.47;5.70;;;;;;;15.08;70.44;97454.69;1745672;81;25875;-91
2021/09/23 09:08:11;;;;;;;7.72;6.05;;;;;;;15.29;70.21;97458.66;1771356;79;26382;-90
2021/09/23 09:10:38;;;;;;;11.43;6.10;;;;;;;15.49;69.90;97459.07;1762165;81;25867;-87
2021/09/23 09:13:07;;;;;;;7.58;5.45;;;;;;;15.76;69.68;97447.66;1768267;81;28427;-85
2021/09/23 09:15:50;;;;;;;8.30;5.17;;;;;;;16.06;69.33;97450.92;1766643;80;25798;-88
2021/09/23 09:18:21;;;;;;;;;;;;;;;16.38;69.01;97451.77;1766149;81;25781;-88
2021/09/23 09:21:03;;;;;;;9.98;5.33;;;;;;;16.73;68.02;97437.37;1765604;81;26146;-90
2021/09/23 09:23:53;;;;;;;7.33;4.80;;;;;;;16.99;67.97;97441.30;1766398;81;26352;-90
2021/09/23 09:26:35;;;;;;;7.65;4.75;;;;;;;17.10;67.67;97439.53;1754321;81;27450;-83
2021/09/23 09:29:05;;;;;;;5.93;4.00;;;;;;;17.08;67.12;97435.69;1734205;81;25724;-87
2021/09/23 09:31:33;;;;;;;7.78;4.12;;;;;;;16.89;66.50;97435.17;1734131;81;25718;-90
2021/09/23 09:34:02;;;;;;;7.90;3.80;;;;;;;16.69;66.28;97430.76;1734205;81;26711;-88
2021/09/23 09:36:36;;;;;;;11.20;3.92;;;;;;;16.41;65.66;97428.95;1746279;81;26481;-87
2021/09/23 09:39:12;;;;;;;7.00;4.50;;;;;;;16.25;65.78;97430.29;1743265;81;27414;-89
2021/09/23 09:41:43;;;;;;;8.38;4.50;;;;;;;16.12;65.80;97424.63;1746048;81;26469;-88
2021/09/23 09:44:12;;;;;;;6.40;3.87;;;;;;;15.98;65.86;97429.55;1765738;81;25663;-86
2021/09/23 09:46:52;;;;;;;7.65;3.95;;;;;;;15.85;65.56;97428.50;1733985;81;26103;-84
2021/09/23 09:49:14;;;;;;;6.90;3.85;;;;;;;15.77;65.60;97424.81;1748304;81;25746;-85
2021/09/23 09:52:01;;;;;;;9.75;3.92;;;;;;;15.71;65.76;97430.69;1765974;81;27532;-83
2021/09/23 09:54:25;;;;;;;8.58;3.80;;;;;;;15.67;65.77;97434.16;1764409;81;25810;-86
2021/09/23 09:57:03;;;;;;;8.08;3.72;;;;;;;15.58;65.50;97438.34;1743339;81;25778;-92
2021/09/23 09:59:30;;;;;;;6.33;3.62;;;;;;;15.53;65.57;97440.91;1762170;81;26701;-85
2021/09/23 10:01:59;;;;;;;8.80;3.75;;;;;;;15.48;65.81;97446.53;1764950;81;25752;-85
2021/09/23 10:04:28;;;;;;;10.75;4.17;;;;;;;15.47;65.76;97441.33;1761329;80;27497;-85
2021/09/23 10:07:02;;;;;;;4.50;3.08;;;;;;;15.45;65.53;97449.76;1765292;81;25805;-90
2021/09/23 10:09:31;;;;;;;8.85;4.10;;;;;;;15.43;65.57;97447.81;1762290;80;25272;-86
2021/09/23 10:12:00;;;;;;;7.85;3.75;;;;;;;15.39;65.69;97442.55;1758583;80;26057;-86
2021/09/23 10:14:28;;;;;;;9.15;3.37;;;;;;;15.33;65.59;97435.37;1754659;80;25711;-88
2021/09/23 10:16:56;;;;;;;6.28;3.17;;;;;;;15.29;65.76;97430.11;1749138;80;28290;-86
2021/09/23 10:19:23;;;;;;;10.03;3.90;;;;;;;15.28;65.60;97420.83;1765149;81;25845;-84
2021/09/23 10:21:50;;;;;;;8.33;3.42;;;;;;;15.27;65.64;97415.09;1751388;80;25775;-83
2021/09/23 10:24:18;;;;;;;8.95;3.70;;;;;;;15.25;65.84;97413.97;1754748;80;26047;-86
2021/09/23 10:26:48;;;;;;;10.55;3.77;;;;;;;15.22;65.76;97410.36;1754367;80;25868;-86
2021/09/23 10:29:16;;;;;;;9.63;3.40;;;;;;;15.16;65.64;97409.16;1752975;80;27370;-86
2021/09/23 10:31:44;;;;;;;8.38;3.05;;;;;;;14.98;65.46;97389.73;1743667;80;26519;-86
2021/09/23 10:34:11;;;;;;;10.15;4.15;;;;;;;14.86;65.62;97392.47;1765245;80;25787;-86
2021/09/23 10:36:41;;;;;;;8.38;3.70;;;;;;;14.82;65.60;97392.68;1737513;81;26116;-90
2021/09/23 10:39:10;;;;;;;9.83;3.95;;;;;;;14.80;65.54;97385.83;1744919;80;25796;-86
2021/09/23 10:41:39;;;;;;;12.40;3.98;;;;;;;14.78;65.55;97392.32;1760046;80;27383;-87
2021/09/23 10:44:07;;;;;;;7.33;3.40;;;;;;;14.77;65.40;97385.77;1762935;81;25872;-85
2021/09/23 10:46:35;;;;;;;9.68;3.25;;;;;;;14.77;65.66;97379.80;1763385;79;25875;-87
2021/09/23 10:49:05;;;;;;;8.90;3.52;;;;;;;14.92;66.17;97371.15;1758931;79;26493;-86
2021/09/23 10:51:34;;;;;;;10.18;3.70;;;;;;;15.16;66.24;97375.16;1729763;82;25782;-86
2021/09/23 10:54:04;;;;;;;9.90;3.80;;;;;;;15.44;66.37;97363.78;1720244;82;27379;-86
2021/09/23 10:56:33;;;;;;;6.90;3.15;;;;;;;15.71;66.14;97362.66;1756063;81;26006;-86
2021/09/23 10:59:01;;;;;;;10.20;4.00;;;;;;;15.95;65.96;97355.17;1731993;81;25860;-88
2021/09/23 11:01:32;;;;;;;9.75;3.98;;;;;;;16.16;65.48;97344.92;1722620;82;26019;-85
2021/09/23 11:04:01;;;;;;;9.55;3.42;;;;;;;16.26;64.87;97342.06;1770646;80;25279;-86
2021/09/23 11:06:39;;;;;;;8.58;3.25;;;;;;;16.25;64.53;97347.22;1767126;79;27068;-85
2021/09/23 11:09:22;;;;;;;5.92;3.10;;;;;;;16.16;64.03;97338.12;1771112;80;25801;-86
2021/09/23 11:11:53;;;;;;;7.67;3.15;;;;;;;16.12;63.94;97332.05;1770525;80;25451;-85
2021/09/23 11:14:22;;;;;;;9.20;3.10;;;;;;;16.05;63.60;97311.80;1771010;80;26049;-85
2021/09/23 11:16:52;;;;;;;9.45;3.92;;;;;;;16.00;63.65;97317.16;1771155;80;25828;-86
2021/09/23 11:19:22;;;;;;;9.03;4.10;;;;;;;15.93;63.67;97324.67;1771101;80;28320;-86
2021/09/23 11:21:53;;;;;;;11.05;4.60;;;;;;;15.83;63.54;97324.48;1770913;80;25763;-87
2021/09/23 11:24:22;;;;;;;8.90;3.75;;;;;;;15.74;63.58;97324.61;1771483;80;25721;-86
2021/09/23 11:26:50;;;;;;;10.38;4.22;;;;;;;15.70;63.77;97320.72;1771160;80;26229;-87
2021/09/23 11:29:18;;;;;;;7.92;4.42;;;;;;;15.68;63.75;97314.72;1770955;80;25672;-87
2021/09/23 11:31:55;;;;;;;9.20;4.50;;;;;;;15.72;63.81;97307.16;1771392;80;28174;-83